Tiempo atmosférico en la estación meteorológica de Granada Aeropuerto, Granada (567 m.)



Fecha
DESCASC
Temp. máxima en grados centígrados (hora)
DESCASC
Temp. mínima en grados centígrados (hora)
DESCASC
Temp. media en grados centígrados
DESCASC
Racha de viento máxima en m/sg (hora)
DESCASC
Velocidad máxima media en intervalos de 10 minutos(hora)
DESCASC
Precipitaciones diarias en mm
DESCASC
Precipitaciones de 00:00 a 06:00 en mm
DESCASC
Precipitaciones de 06:00 a 12:00 en mm
DESCASC
Precipitaciones de 12:00 a 18:00 en mm
DESCASC
Precipitaciones de 18:00 a 24:00 en mm
DESCASC
22-11-2020 17.7 (16:30) 1.9 (08:20) 9.8 6.67 (19:10) 4.72 (19:10) 0 0 0 0 0
21-11-2020 18.5 (13:50) 3.5 (06:50) 11 8.89 (14:40) 6.11 (14:50) 0 0 0 0 0
20-11-2020 22.5 (16:00) 4 (08:20) 13.3 5 (21:50) 3.89 (18:30) 0 0 0 0 0
19-11-2020 24.8 (15:50) 4.3 (00:00) 14.5 5.83 (16:50) 3.89 (16:50) 0 0 0 0 0
18-11-2020 24.6 (16:20) 4.4 (00:00) 14.5 -- (--) -- (--) 0 0 0 0 0
17-11-2020 23.4 (15:40) 5.4 (00:00) 14.4 4.17 (20:40) 3.61 (20:40) 0 0 0 0 0
16-11-2020 23.8 (15:00) 7.4 (00:00) 15.6 4.72 (13:30) 3.61 (17:00) 0 0 0 0 0
15-11-2020 23.7 (16:20) 9.1 (00:00) 16.4 3.06 (02:30) 1.67 (02:30) 0 0 0 0 0
14-11-2020 18.8 (12:40) 11.7 (00:00) 15.2 7.78 (15:20) 5.28 (15:30) 0 0 0 0 0
13-11-2020 21.5 (16:00) 8.3 (00:00) 14.9 5 (18:20) 3.06 (18:20) 0 0 0 0 0
12-11-2020 20.8 (16:20) 5 (00:00) 12.9 8.89 (16:20) 5.83 (16:30) 0 0 0 0 0
11-11-2020 20.8 (17:00) 4.5 (00:00) 12.6 6.67 (15:10) 3.89 (18:40) 0 0 0 0 0
10-11-2020 21.2 (17:00) 5.7 (00:00) 13.5 3.61 (16:10) 3.06 (19:50) 0 0 0 0 0
09-11-2020 19.8 (14:10) 4.3 (00:00) 12 6.67 (14:10) 4.72 (14:20) 0 0 0 0 0
08-11-2020 20 (15:50) 3.8 (00:00) 11.9 5.83 (16:50) 3.89 (17:00) 0 0 0 0 0
07-11-2020 19.8 (15:50) 8.2 (00:00) 14 11.39 (07:10) 7.5 (01:20) 4.1 3.2 0.9 0 0
06-11-2020 27.8 (13:20) 9.7 (00:00) 18.7 16.39 (13:40) 11.67 (13:50) 5.9 0 0 0 5.9
05-11-2020 22 (14:40) 11 (00:00) 16.5 16.94 (03:00) 11.67 (15:40) 5.2 4.8 0.3 0.1 0
04-11-2020 18.7 (16:40) 10.1 (00:00) 14.4 11.67 (21:40) 7.5 (21:40) 0.8 0 0.8 0 0
03-11-2020 26.6 (15:30) 5 (00:00) 15.8 7.78 (16:20) 5 (16:20) 0 0 0 0 0
02-11-2020 27.6 (16:30) 5.4 (00:00) 16.5 5 (16:00) 3.06 (18:30) 0 0 0 0 0
01-11-2020 27.7 (16:10) 5.4 (00:00) 16.6 -- (--) -- (--) 0 0 0 0 0
31-10-2020 27 (15:10) 6.6 (00:00) 16.8 6.67 (18:00) 4.72 (18:00) -- -- 0 0 0
30-10-2020 27.9 (16:20) 5.8 (00:00) 16.8 7.22 (13:50) 5 (17:00) 0 0 0 0 0
29-10-2020 26.8 (16:20) 4.1 (00:00) 15.4 6.11 (19:20) 3.89 (18:40) 0 0 0 0 0
28-10-2020 23.4 (16:10) 2.5 (00:00) 12.9 5 (17:50) 3.61 (17:50) 0 0 0 0 0
27-10-2020 18.7 (16:40) 0.4 (00:00) 9.6 5 (14:50) 3.61 (20:30) 0 0 0 0 0

Gráficas

Temp. máximas Temp. mínimas Temp. medias Precipitaciones Rachas de viento máximas Velocidades máximas media en intervalos de 10 minutos

Datos horarios

Fecha y hora oficial Temperatura (ºC) Velocidad del viento (km/h) Dirección del viento Racha (km/h) Dirección de racha Precipitación (mm) Presión (hPa) Tendencia (hPa) Humedad (%)
2020-11-25 23:00:00 9 2 Sur 13 Sudeste 0 945.3 -1.1 94
2020-11-25 22:00:00 8.9 0 Calma 28 Oeste 0 945.9 -0.5 93
2020-11-25 21:00:00 10.3 14 Oeste 24 Oeste 0 946.5 -0.1 93
2020-11-25 20:00:00 10 12 Noroeste 17 Noroeste 0 946.4 -0.4 93
2020-11-25 19:00:00 11.3 2 Sudoeste 5 Sudoeste 0 946.4 -0.3 89
2020-11-25 18:00:00 12.1 0 Calma 13 Oeste 0 946.6 -0.3 87
2020-11-25 17:00:00 12.3 8 Oeste 26 Noroeste 0 946.8 -1.2 91
2020-11-25 16:00:00 15.2 13 Oeste 28 Sur 0 946.7 -2.6 64
2020-11-25 15:00:00 15.9 12 Sur 21 Sur 0 946.9 -3.8 61
2020-11-25 14:00:00 16.3 9 Este 30 Este 0 948 -- 58
2020-11-25 13:00:00 16 3 Sudeste -- -- -- 949.3 -- 57
2020-11-25 12:00:00 14.7 0 Calma 5 Sudeste 0 950.7 -- 59
2020-11-25 11:00:00 10.7 0 Calma 5 Norte 0 951.2 -- 72
2020-11-25 10:00:00 6.4 0 Calma 11 Noroeste 0 951.4 -- 86
2020-11-25 09:00:00 5.6 0 Calma 5 Sur 0 951.5 -- 90
2020-11-25 08:00:00 5.4 4 Oeste 8 Oeste 0 951.8 -- 90
2020-11-25 07:00:00 5.6 0 Calma 4 Oeste 0 951.8 -- 90
2020-11-25 06:00:00 5.5 0 Calma 11 Sur 0 952 -- 90
2020-11-25 05:00:00 5 2 Oeste 5 Oeste 0 952.4 -- 90
2020-11-25 04:00:00 5.6 0 Calma 4 Sudeste 0 952.7 -- 88
2020-11-25 03:00:00 5.1 0 Calma 5 Noroeste 0 952.9 -- 86
2020-11-25 02:00:00 6.1 0 Calma 11 Sur 0 953.3 -- 85
2020-11-25 01:00:00 4.8 4 Oeste 13 Sudoeste 0 953.8 -- 86
2020-11-25 00:00:00 4.2 0 Calma 8 Este 0 954.3 -- 87
2020-11-24 23:00:00 4.8 3 Sudeste 8 Sudeste 0 954.6 -- 86
2020-11-24 22:00:00 5.1 0 Calma 5 Sudoeste 0 954.6 -- 83
2020-11-24 21:00:00 7.5 0 Calma 8 Este 0 954.4 -- 71
2020-11-24 20:00:00 9.8 0 Calma 18 Sur 0 954.5 -- 61
2020-11-24 19:00:00 9.8 14 Sur -- -- 0 954.4 -- 64
2020-11-24 18:00:00 14.7 7 Sudoeste 8 Sudoeste 0 954.1 -- 50
2020-11-24 17:00:00 18.1 3 Noroeste 15 Oeste 0 953.9 -- 37
2020-11-24 16:00:00 18.6 5 Oeste 17 Oeste 0 954.3 -- 34
2020-11-24 15:00:00 18.2 4 Oeste 11 Oeste 0 954.8 -- 34
2020-11-24 14:00:00 16.3 0 Calma 5 Oeste 0 956 -- 40
2020-11-24 13:00:00 13 0 Calma 5 Norte 0 957 -- 50
2020-11-24 12:00:00 10.3 0 Calma 5 Este 0 958.1 -- 55
2020-11-24 11:00:00 6 5 Oeste 8 Oeste 0 958.7 -- 78
2020-11-24 10:00:00 4.3 0 Calma 4 Sudeste 0 958.6 -- 83
2020-11-24 09:00:00 0.4 0 Calma 4 Sudoeste 0 958.5 -- 93
2020-11-24 08:00:00 -1 2 Sudoeste 4 Oeste 0 958.3 -- 94
2020-11-24 07:00:00 -0.9 0 Calma 9 Sudeste 0 958.4 -- 94
2020-11-24 06:00:00 -0.5 0 Calma 8 Sur 0 958 -- 95
2020-11-24 05:00:00 -0.8 0 Calma 4 Oeste 0 958.2 -- 94
2020-11-24 04:00:00 -0.2 2 Oeste 11 Oeste 0 958.5 -- 95
2020-11-24 03:00:00 0.2 3 Noroeste 8 Noroeste 0 958.9 -- 94
2020-11-24 02:00:00 1 2 Sur 8 Sudeste 0 959 -- 93
2020-11-24 01:00:00 2.4 4 Sudoeste 11 Sudoeste 0 959.5 -- 93
2020-11-24 00:00:00 2.7 0 Calma 5 Oeste 0 959.8 -- 89
2020-11-23 23:00:00 4.3 2 Sudoeste 8 Oeste 0 960 -- 92
2020-11-23 22:00:00 5.1 0 Calma 8 Oeste 0 959.8 -- 87
2020-11-23 21:00:00 7.3 0 Calma 4 Noroeste 0 959.7 -- 82
2020-11-23 20:00:00 10.1 2 Norte 8 Sudoeste 0 959.5 -- 72
2020-11-23 19:00:00 10.6 4 Norte 17 Sur 0 959.2 -- 69
2020-11-23 18:00:00 14.3 9 Sur 15 Sudoeste 0 958.8 -- 57
2020-11-23 17:00:00 17.2 12 Sudoeste 18 Oeste 0 958.6 -- 48
2020-11-23 16:00:00 18.1 10 Noroeste 18 Noroeste 0 958.4 -- 42
2020-11-23 15:00:00 18.1 6 Oeste 17 Oeste 0 958.5 -- 38
2020-11-23 14:00:00 17.2 10 Oeste 18 Oeste 0 959 -- 40
2020-11-23 13:00:00 14.2 2 Norte 8 Noroeste 0 959.9 -- 47
2020-11-23 12:00:00 11.1 2 Norte 11 Nordeste 0 960.9 -- 57
2020-11-23 11:00:00 7.8 3 Nordeste 8 Norte 0 961.4 -- 69
2020-11-23 10:00:00 4.3 3 Norte 5 Norte 0 961.6 -- 84
2020-11-23 09:00:00 0.7 0 Calma 5 Sudeste 0 961.2 -- 93
2020-11-23 08:00:00 -1.1 2 Sudeste 5 Sudeste 0 960.7 -- 94
2020-11-23 07:00:00 -0.8 0 Calma 4 Sur 0 960.2 -- 93
2020-11-23 06:00:00 -0.1 0 Calma 2 Sudoeste 0 960.2 -- 94
2020-11-23 05:00:00 -0.1 0 Calma 4 Sur 0 960.3 -- 94
2020-11-23 04:00:00 0.6 0 Calma 8 Sur 0 960.4 -- 95
2020-11-23 03:00:00 1.1 3 Sudoeste 5 Sur 0 960.3 -- 92
2020-11-23 02:00:00 1.8 6 Sudoeste 8 Oeste 0 960.6 -- 93
2020-11-23 01:00:00 3.2 0 Calma 5 Oeste 0 960.8 -- 90
2020-11-23 00:00:00 3.4 0 Calma 5 Sur 0 960.8 -- 88
2020-11-22 23:00:00 4.4 0 Calma 5 Oeste 0 960.6 -- 88
2020-11-22 22:00:00 6 3 Sudoeste 8 Sudoeste 0 960.3 -- 83
2020-11-22 21:00:00 8.1 3 Sudoeste 5 Oeste 0 959.9 -- 77
2020-11-22 20:00:00 10.9 3 Norte 24 Sur 0 959.7 -- 68
2020-11-22 19:00:00 12.2 15 Sur 21 Sur 0 959.4 -- 64
2020-11-22 18:00:00 14.6 13 Sur 18 Sur 0 959.2 -- 55
2020-11-22 17:00:00 17.1 2 Este 8 Sudeste 0 959 -- 41
2020-11-22 16:00:00 17.4 0 Calma 13 Este 0 958.8 -- 41
2020-11-22 15:00:00 16.4 3 Este 18 Este 0 959.2 -- 43
2020-11-22 14:00:00 16.2 5 Este 21 Nordeste 0 960 -- 43
2020-11-22 13:00:00 14.8 6 Este 15 Este 0 960.9 -- 50
2020-11-22 12:00:00 12.7 5 Norte 15 Norte 0 961.7 -- 61
2020-11-22 11:00:00 10.9 3 Nordeste 8 Nordeste 0 962.2 -- 72
2020-11-22 10:00:00 7.7 0 Calma 4 Sudoeste 0 962.1 -- 85
2020-11-22 09:00:00 4.1 0 Calma 5 Sudoeste 0 961.9 -- 96
2020-11-22 08:00:00 2.1 0 Calma 4 Sur 0 961.6 -- 95
2020-11-22 07:00:00 3.1 0 Calma -- -- 0 961.4 -- 94
2020-11-22 06:00:00 4.2 0 Calma 11 Sudoeste 0 961 -- 94
2020-11-22 05:00:00 3.9 0 Calma 5 Sudoeste 0 960.8 -- 94
2020-11-22 04:00:00 4.8 0 Calma 5 Sudoeste 0 960.7 -- 94
2020-11-22 03:00:00 6 0 Calma 11 Este 0 960.8 -- 93
2020-11-22 02:00:00 5.1 0 Calma 8 Sur 0 960.7 -- 92
2020-11-22 01:00:00 6.4 0 Calma 11 Sudoeste 0 960.9 -- 92
2020-11-22 00:00:00 7.2 0 Calma 5 Sur 0 960.7 -- 92
2020-11-21 23:00:00 7.9 0 Calma 8 Norte 0 960.8 -- 90
2020-11-21 22:00:00 9.4 0 Calma 11 Este 0 960.7 -- 87
2020-11-21 21:00:00 11.9 5 Este 11 Este 0 960.5 -- 80
2020-11-21 20:00:00 12.2 0 Calma 9 Nordeste 0 960 -- 73
2020-11-21 19:00:00 12.1 4 Noroeste 21 Sur 0 959.7 -- 72
2020-11-21 18:00:00 15.2 12 Sur 22 Sur 0 959 -- 60
2020-11-21 17:00:00 17.5 15 Sur 24 Sur 0 958.7 -- 52
2020-11-21 16:00:00 18 18 Sur 32 Sudeste 0 958.2 -- 48
2020-11-21 15:00:00 18.3 22 Sudeste 32 Sur 0 958.4 -- 48
2020-11-21 14:00:00 18.3 18 Sur 28 Sur 0 958.7 -- 49
2020-11-21 13:00:00 17.8 18 Sur 30 Sur 0 959.6 -- 55
2020-11-21 12:00:00 15.1 3 Nordeste 11 Norte 0 960.2 -- 66
2020-11-21 11:00:00 12.2 3 Nordeste 5 Nordeste 0 960.4 -- 71
2020-11-21 10:00:00 9.4 2 Este 5 Este 0 960.3 -- 81
2020-11-21 09:00:00 5.3 0 Calma 8 Oeste 0 959.8 -- 95
2020-11-21 08:00:00 3.9 3 Sudoeste 5 Oeste 0 959.6 -- 95
2020-11-21 07:00:00 3.8 0 Calma 5 Este 0 959 -- 94
2020-11-21 06:00:00 4.3 0 Calma 5 Sudoeste 0 958.8 -- 94
2020-11-21 05:00:00 4.9 0 Calma 8 Este 0 958.8 -- 90
2020-11-21 04:00:00 5.2 2 Nordeste 5 Sur 0 959 -- 93
2020-11-21 03:00:00 6.9 0 Calma 5 Oeste 0 959 -- 85
2020-11-21 02:00:00 6.5 4 Oeste 5 Oeste 0 958.9 -- 94
2020-11-21 01:00:00 6.8 3 Oeste 5 Sudoeste 0 959 -- 93
2020-11-21 00:00:00 7.8 4 Oeste 8 Oeste 0 959.1 -- 93
2020-11-20 23:00:00 8.1 3 Sudoeste 5 Sudoeste 0 959.1 -- 90
2020-11-20 22:00:00 9.3 2 Sudeste 18 Sur 0 958.5 -- 86
2020-11-20 21:00:00 10.9 3 Oeste 8 Noroeste 0 958 -- 78
2020-11-20 20:00:00 12.8 2 Sudeste 17 Sur 0 958.1 -- 73
2020-11-20 19:00:00 14.4 12 Sur 17 Sur 0 957.4 -- 65
2020-11-20 18:00:00 20 5 Sudoeste 11 Oeste 0 957.4 -- 50
2020-11-20 17:00:00 22.4 6 Oeste 13 Oeste 0 957.2 -- 41
2020-11-20 16:00:00 22.3 5 Sudoeste 13 Sudoeste 0 957.3 -- 43
2020-11-20 15:00:00 21 3 Noroeste 11 Noroeste 0 957.9 -- 44
2020-11-20 14:00:00 19.9 3 Noroeste 11 Nordeste 0 958.7 -- 49
2020-11-20 13:00:00 18.5 0 Calma 5 Norte 0 959.7 -- 50
2020-11-20 12:00:00 15.2 0 Calma 8 Norte 0 961.1 -- 67
2020-11-20 11:00:00 11.7 0 Calma 8 Nordeste 0 961.4 -- 81
2020-11-20 10:00:00 9.1 0 Calma 5 Sudeste 0 961.5 -- 86
2020-11-20 09:00:00 5.5 0 Calma 8 Norte 0 961.4 -- 95
2020-11-20 08:00:00 4.4 3 Sur 8 Sur 0 961 -- 96
2020-11-20 07:00:00 5 0 Calma 8 Sur 0 961.2 -- 95
2020-11-20 06:00:00 5.6 7 Sur 9 Sur 0 961.4 -- 97
2020-11-20 05:00:00 5.7 3 Norte 15 Sudoeste 0 961.4 -- 96
2020-11-20 04:00:00 6.7 6 Sur 8 Sur 0 961.7 -- 98
2020-11-20 03:00:00 6.5 4 Sur 11 Norte 0 961.4 -- 95
2020-11-20 02:00:00 7 3 Sudeste 8 Sur 0 961.9 -- 94
2020-11-20 01:00:00 8.1 2 Nordeste 11 Sur 0 962.5 -- 95
2020-11-20 00:00:00 8.3 -- -- -- -- 0 963 -- 93
2020-11-19 23:00:00 9 0 Calma 4 Sudoeste 0 962.9 -- 91
2020-11-19 22:00:00 10.8 0 Calma 11 Noroeste 0 962.5 -- 87
2020-11-19 21:00:00 11.3 4 Sur 8 Sur 0 962.1 -- 86
2020-11-19 20:00:00 13.7 0 Calma 15 Sur 0 961.8 -- 77
2020-11-19 19:00:00 15.5 12 Sur 17 Sur 0 961.4 -- 71
2020-11-19 18:00:00 18.5 10 Sudeste 18 Sur 0 960.9 -- 61
2020-11-19 17:00:00 22 13 Sur 21 Sur 0 960.3 -- 48
2020-11-19 16:00:00 24.1 10 Sudeste 15 Sudeste 0 960 -- 41
2020-11-19 15:00:00 23.8 0 Calma 9 Oeste 0 960.1 -- 41
2020-11-19 14:00:00 21.2 2 Noroeste 13 Norte 0 960.8 -- 48
2020-11-19 13:00:00 19 2 Norte 8 Noroeste 0 961.4 -- 57
2020-11-19 12:00:00 17.2 0 Calma 5 Sur 0 962.3 -- 62
2020-11-19 11:00:00 13.1 0 Calma 5 Sur 0 962.8 -- 72
2020-11-19 10:00:00 9.3 0 Calma 2 Este 0 962.8 -- 87
2020-11-19 09:00:00 6.3 0 Calma 2 Sudeste 0 962.4 -- 95
2020-11-19 08:00:00 4.5 0 Calma 5 Sudoeste 0 961.5 -- 96
2020-11-19 07:00:00 5.2 0 Calma 8 Sudeste 0 961 -- 95
2020-11-19 06:00:00 5.5 0 Calma 5 Sudoeste 0 960.7 -- 94
2020-11-19 05:00:00 6.4 3 Sudoeste 4 Sudoeste 0 960.4 -- 95
2020-11-19 04:00:00 6.4 0 Calma 5 Sudoeste 0 960.3 -- 96
2020-11-19 03:00:00 6.6 0 Calma 2 Sudoeste 0 960.4 -- 93
2020-11-19 02:00:00 7.3 0 Calma 4 Norte 0 960.6 -- 93
2020-11-19 01:00:00 8 2 Sudeste 4 Sudeste 0 960.9 -- 92
2020-11-19 00:00:00 8.9 -- -- -- -- 0 961 -- 92
2020-11-18 23:00:00 9.8 0 Calma 8 Sudoeste 0 960.8 -- 90
2020-11-18 22:00:00 11.4 0 Calma -- -- 0 960.5 -- 85
2020-11-18 21:00:00 12.6 5 Sudoeste 8 Sudoeste 0 960.3 -- 83
2020-11-18 20:00:00 14.4 2 Oeste 13 Sudeste 0 959.9 -- 73
2020-11-18 19:00:00 17.2 13 Sur 18 Sur 0 959.3 -- 64
2020-11-18 18:00:00 20 9 Sur 17 Sur 0 958.8 -- 54
2020-11-18 17:00:00 24.2 6 Sudeste 15 Este 0 958.5 -- 40
2020-11-18 16:00:00 24.2 0 Calma 8 Noroeste 0 958.5 -- 41
2020-11-18 15:00:00 23.2 0 Calma 8 Noroeste 0 958.8 -- 44
2020-11-18 14:00:00 21.3 0 Calma 13 Noroeste 0 959.4 -- 49
2020-11-18 13:00:00 18.9 3 Norte 9 Norte 0 960.3 -- 55
2020-11-18 12:00:00 16.4 2 Norte 11 Este 0 961.4 -- 63
2020-11-18 11:00:00 12.9 2 Este 5 Este 0 961.9 -- 70
2020-11-18 10:00:00 8.9 0 Calma 5 Norte 0 962 -- 87
2020-11-18 09:00:00 7 3 Sudoeste 5 Sur 0 961.7 -- 98
2020-11-18 08:00:00 4.6 0 Calma 4 Oeste 0 961.3 -- 96
2020-11-18 07:00:00 4.9 3 Este 4 Este 0 961 -- 95
2020-11-18 06:00:00 5.3 0 Calma 4 Sudoeste 0 960.8 -- 94
2020-11-18 05:00:00 6.3 0 Calma 8 Sudoeste 0 960.7 -- 95
2020-11-18 04:00:00 7.2 5 Sudoeste 5 Sudoeste 0 961 -- 95
2020-11-18 03:00:00 6.9 0 Calma 4 Sudoeste 0 961.2 -- 95
2020-11-18 02:00:00 7.5 0 Calma -- -- 0 961.3 -- 93
2020-11-18 01:00:00 8.7 3 Oeste 5 Sudoeste 0 961.6 -- 92
2020-11-18 00:00:00 9.1 0 Calma 2 Sudoeste 0 961.5 -- 89
2020-11-17 23:00:00 10.4 0 Calma -- -- 0 961.4 -- 87
2020-11-17 22:00:00 11.5 3 Sudeste 5 Este 0 961 -- 82
2020-11-17 21:00:00 12.4 4 Sudoeste 15 Sudoeste 0 960.6 -- 80
2020-11-17 20:00:00 13.8 5 Sudoeste 9 Sudoeste 0 960.2 -- 73
2020-11-17 19:00:00 15.3 7 Sudoeste 8 Sudoeste 0 959.8 -- 67
2020-11-17 18:00:00 20.9 2 Sur 8 Oeste 0 959.4 -- 50
2020-11-17 17:00:00 23.1 5 Oeste 13 Noroeste 0 959.3 -- 42
2020-11-17 16:00:00 23 8 Oeste 13 Noroeste 0 959.2 -- 41
2020-11-17 15:00:00 22.6 4 Noroeste 8 Oeste 0 959.5 -- 45
2020-11-17 14:00:00 20.8 0 Calma 8 Noroeste 0 959.9 -- 53
2020-11-17 13:00:00 18.5 0 Calma 5 Norte 0 960.7 -- 58
2020-11-17 12:00:00 16.3 0 Calma 4 Este 0 961.8 -- 69
2020-11-17 11:00:00 12.9 0 Calma -- -- 0 961.9 -- 82
2020-11-17 10:00:00 10.2 0 Calma 4 Norte 0 961.8 -- 89
2020-11-17 09:00:00 7.3 0 Calma 5 Sudoeste 0 961.4 -- 95
2020-11-17 08:00:00 5.5 4 Oeste 5 Sudoeste 0 960.8 -- 96
2020-11-17 07:00:00 6.3 4 Sudoeste 5 Sudoeste 0 960.3 -- 97
2020-11-17 06:00:00 6.7 0 Calma 13 Sudoeste 0 960.2 -- 97
2020-11-17 05:00:00 7.4 11 Sur 13 Sudoeste 0 959.8 -- 98
2020-11-17 04:00:00 7.7 5 Sudoeste 8 Oeste 0 959.6 -- 97
2020-11-17 03:00:00 8.5 2 Sudoeste 8 Sur 0 959.4 -- 96
2020-11-17 02:00:00 9.4 3 Noroeste 11 Oeste 0 959.5 -- 96
2020-11-17 01:00:00 9.5 3 Noroeste 11 Sudoeste 0 959.8 -- 95
2020-11-17 00:00:00 10.4 5 Sur 8 Sur 0 959.8 -- 93
2020-11-16 23:00:00 11.5 2 Sudoeste 5 Sur 0 959.7 -- 92
2020-11-16 22:00:00 13.4 0 Calma 13 Sudoeste 0 959.5 -- 88
2020-11-16 21:00:00 14.1 5 Sudoeste 11 Oeste 0 959 -- 85
2020-11-16 20:00:00 15.2 11 Oeste 17 Oeste 0 958.5 -- 79
2020-11-16 19:00:00 17.2 12 Sudoeste 17 Sudoeste 0 957.7 -- 72
2020-11-16 18:00:00 20 12 Oeste 17 Oeste 0 957.4 -- 59
2020-11-16 17:00:00 22.9 13 Oeste 17 Oeste 0 957 -- 48
2020-11-16 16:00:00 23.6 9 Sudoeste 17 Oeste 0 956.7 -- 46
2020-11-16 15:00:00 23.7 3 Sudoeste 13 Sudoeste 0 956.7 -- 46
2020-11-16 14:00:00 22.1 5 Oeste 17 Noroeste 0 957.2 -- 52
2020-11-16 13:00:00 20.7 6 Noroeste 13 Noroeste 0 958 -- 57
2020-11-16 12:00:00 18.2 0 Calma 8 Este 0 958.8 -- 65
2020-11-16 11:00:00 14.6 3 Norte 8 Norte 0 958.9 -- 80
2020-11-16 10:00:00 12.7 0 Calma 5 Norte 0 958.8 -- 86
2020-11-16 09:00:00 9.1 0 Calma 5 Sudeste 0 958.4 -- 95
2020-11-16 08:00:00 8 2 Sur 5 Sur 0 957.8 -- 96
2020-11-16 07:00:00 7.8 0 Calma 4 Noroeste 0 957.3 -- 95
2020-11-16 06:00:00 8.4 2 Sudoeste 8 Sudoeste 0 957.1 -- 95
2020-11-16 05:00:00 8.7 3 Sudoeste 8 Sudoeste 0 957.3 -- 96
2020-11-16 04:00:00 9.1 2 Sudoeste 5 Oeste 0 957.3 -- 93
2020-11-16 03:00:00 9.8 0 Calma 4 Noroeste 0 957.4 -- 93
2020-11-16 02:00:00 10.6 2 Sudoeste 4 Sudoeste 0 957.6 -- 94
2020-11-16 01:00:00 11.1 0 Calma 4 Noroeste 0 957.9 -- 93
2020-11-16 00:00:00 11.7 4 Sur 8 Sur 0 958 -- 92
2020-11-15 23:00:00 12.9 0 Calma 8 Sur 0 958.3 -- 90
2020-11-15 22:00:00 14.1 0 Calma 5 Oeste 0 958.2 -- 88
2020-11-15 21:00:00 14.9 2 Norte 5 Este 0 957.9 -- 83
2020-11-15 20:00:00 15.7 0 Calma 5 Sur 0 957.9 -- 79
2020-11-15 19:00:00 16.5 3 Sudoeste 8 Sur 0 957.1 -- 75
2020-11-15 18:00:00 20.5 4 Sur 5 Sur 0 956.4 -- 64
2020-11-15 17:00:00 23.3 2 Oeste 8 Oeste 0 956.3 -- 50
2020-11-15 16:00:00 23.2 2 Oeste 8 Oeste 0 956.3 -- 51
2020-11-15 15:00:00 21.7 2 Noroeste 5 Noroeste 0 956.3 -- 53
2020-11-15 14:00:00 19.9 0 Calma 5 Noroeste 0 956.9 -- 59
2020-11-15 13:00:00 17.3 0 Calma 8 Noroeste 0 957.7 -- 73
2020-11-15 12:00:00 15 0 Calma 5 Este 0 958.3 -- 82
2020-11-15 11:00:00 12.5 0 Calma 5 Noroeste 0 958.7 -- 92
2020-11-15 10:00:00 11.3 4 Norte 8 Norte 0 958.5 -- 98
2020-11-15 09:00:00 10.6 0 Calma 2 Noroeste 0 958.3 -- 100
2020-11-15 08:00:00 10.2 0 Calma 5 Norte 0 957.9 -- 100
2020-11-15 07:00:00 10.2 0 Calma 11 Noroeste 0 957.3 -- 100
2020-11-15 06:00:00 10.8 0 Calma 4 Noroeste 0 957 -- 100
2020-11-15 05:00:00 10.4 0 Calma 4 Noroeste 0 957.1 -- 100
2020-11-15 04:00:00 10 0 Calma 11 Este 0 957.3 -- 99
2020-11-15 03:00:00 9.2 3 Sudoeste 11 Sudeste 0 957.3 -- 98
2020-11-15 02:00:00 9.6 0 Calma 4 Sudoeste 0 957.4 -- 95
2020-11-15 01:00:00 10.8 3 Oeste 5 Oeste 0 957.2 -- 97
2020-11-15 00:00:00 12 3 Sudoeste 4 Sudoeste 0 957.3 -- 96
2020-11-14 23:00:00 13.1 0 Calma 4 Norte 0 957.6 -- 96
2020-11-14 22:00:00 14.3 0 Calma 4 Sudeste 0 957.4 -- 92
2020-11-14 21:00:00 14.3 3 Norte 4 Norte 0 956.9 -- 93
2020-11-14 20:00:00 15.1 0 Calma 9 Sudeste 0 956.6 -- 88
2020-11-14 19:00:00 15.7 8 Este 13 Este 0 956 -- 84
2020-11-14 18:00:00 16.2 0 Calma 5 Oeste 0 955.6 -- 80
2020-11-14 17:00:00 16.2 3 Oeste 17 Oeste 0 955.3 -- 80
2020-11-14 16:00:00 16.6 8 Oeste 28 Oeste 0 954.9 -- 77
2020-11-14 15:00:00 17.6 17 Oeste 26 Oeste 0 954.9 -- 70
2020-11-14 14:00:00 17.9 16 Oeste 26 Oeste 0 955 -- 71
2020-11-14 13:00:00 18.6 17 Oeste 24 Oeste 0 955.3 -- 64
2020-11-14 12:00:00 18 0 Calma 4 Noroeste 0 955.9 -- 67
2020-11-14 11:00:00 16.3 0 Calma 2 Noroeste 0 955.9 -- 78
2020-11-14 10:00:00 14.8 0 Calma 2 Este 0 955.8 -- 86
2020-11-14 09:00:00 13 0 Calma -- -- -- 955.4 -- 95
2020-11-14 08:00:00 12.6 3 Sudeste -- -- 0 954.8 -- 96
2020-11-14 07:00:00 12.9 0 Calma 5 Sudoeste 0 954.6 -- 94
2020-11-14 06:00:00 13 3 Sudoeste 5 Sudoeste 0 954.5 -- 94
2020-11-14 05:00:00 13.1 2 Oeste 8 Oeste 0 954.3 -- 92
2020-11-14 04:00:00 13.3 0 Calma -- -- 0 954.3 -- 91
2020-11-14 03:00:00 13.7 0 Calma 5 Este 0 954.8 -- 88
2020-11-14 02:00:00 13.8 0 Calma 5 Oeste 0 955 -- 88
2020-11-14 01:00:00 14 0 Calma 4 Oeste 0 955.2 -- 87
2020-11-14 00:00:00 14.1 0 Calma -- -- 0 955.5 -- 86
2020-11-13 23:00:00 14.7 -- -- -- -- 0 955.2 -- 85
2020-11-13 22:00:00 14.9 0 Calma 8 Sudoeste 0 955 -- 82
2020-11-13 21:00:00 15.4 4 Sudoeste 8 Sudoeste 0 954.7 -- 76
2020-11-13 20:00:00 16.1 5 Oeste 15 Este 0 954.4 -- 75
2020-11-13 19:00:00 16.7 11 Sur 18 Sur 0 953.8 -- 74
2020-11-13 18:00:00 18.1 5 Sur 8 Sur 0 953.5 -- 65
2020-11-13 17:00:00 19.8 7 Oeste 11 Oeste 0 953.5 -- 51
2020-11-13 16:00:00 21.4 4 Oeste 13 Noroeste 0 953.2 -- 48
2020-11-13 15:00:00 20.4 3 Oeste 11 Noroeste 0 953.5 -- 54
2020-11-13 14:00:00 19 4 Noroeste 13 Noroeste 0 954.1 -- 57
2020-11-13 13:00:00 17.1 0 Calma 8 Nordeste 0 954.8 -- 63
2020-11-13 12:00:00 15.6 3 Norte 9 Nordeste 0 955.6 -- 70
2020-11-13 11:00:00 14.8 3 Este 8 Este 0 955.6 -- 69
2020-11-13 10:00:00 11.1 0 Calma 2 Sur 0 955.7 -- 90
2020-11-13 09:00:00 8.5 0 Calma 4 Sur 0 955.1 -- 96
2020-11-13 08:00:00 8.5 3 Sudoeste 4 Sudoeste 0 954.5 -- 96
2020-11-13 07:00:00 8.8 0 Calma 2 Sudoeste 0 954.1 -- 95
2020-11-13 06:00:00 8.8 0 Calma 4 Sur 0 954 -- 96
2020-11-13 05:00:00 8.7 0 Calma 4 Este 0 954 -- 95
2020-11-13 04:00:00 9 0 Calma 2 Norte 0 954.1 -- 95
2020-11-13 03:00:00 9.5 0 Calma 5 Sudeste 0 954.2 -- 95
2020-11-13 02:00:00 9.8 6 Este 8 Este 0 954.1 -- 92
2020-11-13 01:00:00 11.4 0 Calma 5 Norte 0 954.4 -- 87
2020-11-13 00:00:00 11.6 2 Oeste 5 Oeste 0 954.2 -- 88
2020-11-12 23:00:00 11.5 0 Calma 8 Sudoeste 0 954.2 -- 89
2020-11-12 22:00:00 12.6 0 Calma 5 Nordeste 0 953.7 -- 84
2020-11-12 21:00:00 14.2 0 Calma 18 Sudeste 0 953.5 -- 79
2020-11-12 20:00:00 14.2 6 Sudeste 15 Sudeste 0 953.7 -- 77
2020-11-12 19:00:00 14.4 3 Noroeste 13 Oeste 0 953.4 -- 72
2020-11-12 18:00:00 16.4 8 Sudoeste 26 Oeste 0 952.9 -- 64
2020-11-12 17:00:00 19.5 16 Sudeste 32 Sudeste 0 952.5 -- 49
2020-11-12 16:00:00 19.8 15 Sudeste 26 Sudeste 0 952.1 -- 47
2020-11-12 15:00:00 19.6 6 Nordeste 13 Este 0 952.5 -- 41
2020-11-12 14:00:00 17.4 4 Nordeste 11 Nordeste 0 953.4 -- 46
2020-11-12 13:00:00 15.8 4 Este 8 Este 0 954.8 -- 57
2020-11-12 12:00:00 14.4 4 Este 9 Este 0 955.6 -- 65
2020-11-12 11:00:00 12.1 3 Nordeste 9 Nordeste 0 956.1 -- 74
2020-11-12 10:00:00 9.8 0 Calma 4 Oeste 0 956.2 -- 85
2020-11-12 09:00:00 6.2 0 Calma 5 Oeste 0 956.1 -- 96
2020-11-12 08:00:00 5.3 4 Oeste 5 Sudoeste 0 955.8 -- 96
2020-11-12 07:00:00 5.3 0 Calma 5 Sudeste 0 955.5 -- 95
2020-11-12 06:00:00 5.6 2 Sudoeste 4 Sudoeste 0 955.6 -- 95
2020-11-12 05:00:00 5.8 0 Calma 5 Sudoeste 0 955.7 -- 95
2020-11-12 04:00:00 5.9 2 Noroeste 8 Sur 0 956.1 -- 95
2020-11-12 03:00:00 6.9 3 Sur 8 Sudoeste 0 956.5 -- 95
2020-11-12 02:00:00 7.3 3 Oeste 8 Sudoeste 0 956.7 -- 96
2020-11-12 01:00:00 8.3 0 Calma 5 Sudoeste 0 957.1 -- 93
2020-11-12 00:00:00 8.8 0 Calma 4 Este 0 957.5 -- 93
2020-11-11 23:00:00 9.8 0 Calma 13 Sudeste 0 957.6 -- 91
2020-11-11 22:00:00 11.4 8 Sudeste 15 Sudeste 0 957.1 -- 89
2020-11-11 21:00:00 10.8 2 Sudeste 9 Sudeste 0 956.6 -- 87
2020-11-11 20:00:00 13.1 3 Noroeste 15 Oeste 0 956.4 -- 76
2020-11-11 19:00:00 14.8 11 Sur 21 Sudoeste 0 956 -- 68
2020-11-11 18:00:00 17.3 11 Sudoeste 21 Sur 0 955.5 -- 62
2020-11-11 17:00:00 20.7 3 Sudeste 17 Este 0 955.1 -- 41
2020-11-11 16:00:00 20.3 6 Nordeste 24 Este 0 954.9 -- 40
2020-11-11 15:00:00 20.3 10 Este 22 Este 0 955.1 -- 40
2020-11-11 14:00:00 19.6 8 Este 22 Este 0 955.8 -- 43
2020-11-11 13:00:00 18.6 11 Este 18 Este 0 957 -- 50
2020-11-11 12:00:00 16.7 5 Norte 15 Nordeste 0 957.7 -- 56
2020-11-11 11:00:00 14 4 Este 11 Este 0 958.5 -- 73
2020-11-11 10:00:00 11.8 3 Este 5 Este 0 958.5 -- 82
2020-11-11 09:00:00 7.7 0 Calma 9 Sur 0 958.6 -- 94
2020-11-11 08:00:00 4.8 0 Calma 5 Sur 0 958.2 -- 95
2020-11-11 07:00:00 5.1 2 Sur 5 Sur 0 958.3 -- 95
2020-11-11 06:00:00 5.8 2 Sudoeste 8 Sur 0 958.6 -- 95
2020-11-11 05:00:00 6.4 2 Oeste 5 Oeste 0 958.8 -- 94
2020-11-11 04:00:00 7.3 5 Sur 15 Sur 0 958.9 -- 94
2020-11-11 03:00:00 6.8 0 Calma 13 Norte 0 959.1 -- 97
2020-11-11 02:00:00 7.2 0 Calma 5 Sudeste 0 959.1 -- 95
2020-11-11 01:00:00 8.3 0 Calma 5 Nordeste 0 959.5 -- 94
2020-11-11 00:00:00 8.6 3 Oeste 5 Oeste 0 959.4 -- 92
2020-11-10 23:00:00 9.7 0 Calma 8 Sudoeste 0 959.5 -- 90
2020-11-10 22:00:00 10.9 0 Calma 8 Nordeste 0 959.3 -- 87
2020-11-10 21:00:00 11.7 0 Calma 8 Sudeste 0 958.8 -- 82
2020-11-10 20:00:00 12.4 6 Sur 13 Sur 0 958.4 -- 81
2020-11-10 19:00:00 14.5 3 Noroeste -- -- 0 958 -- 74
2020-11-10 18:00:00 18.5 8 Sudoeste 11 Oeste 0 957.5 -- 59
2020-11-10 17:00:00 20.8 2 Noroeste 13 Noroeste 0 957.2 -- 46
2020-11-10 16:00:00 20.6 3 Norte 11 Norte 0 957 -- 43
2020-11-10 15:00:00 20.3 2 Noroeste 5 Noroeste 0 957.1 -- 49
2020-11-10 14:00:00 18.4 0 Calma 8 Noroeste 0 957.9 -- 61
2020-11-10 13:00:00 15.7 0 Calma 8 Norte 0 958.9 -- 72
2020-11-10 12:00:00 12.5 0 Calma 5 Norte 0 959.4 -- 96
2020-11-10 11:00:00 10.1 0 Calma 5 Sur 0 960 -- 99
2020-11-10 10:00:00 8.2 0 Calma 4 Norte 0 960 -- 99
2020-11-10 09:00:00 7.3 0 Calma 4 Oeste 0 959.6 -- 99
2020-11-10 08:00:00 6.7 0 Calma 5 Sur 0 958.8 -- 99
2020-11-10 07:00:00 6.5 4 Sur 5 Sur 0 958.5 -- 99
2020-11-10 06:00:00 6.6 0 Calma 4 Sudeste 0 958.3 -- 98
2020-11-10 05:00:00 6.4 2 Sudeste 4 Sur 0 958 -- 97
2020-11-10 04:00:00 5.8 0 Calma 4 Oeste 0 958 -- 96
2020-11-10 03:00:00 6.1 0 Calma 5 Sur 0 958 -- 96
2020-11-10 02:00:00 7.1 0 Calma 5 Noroeste 0 958.1 -- 96
2020-11-10 01:00:00 8.2 3 Sudoeste 11 Sudoeste 0 958.4 -- 96
2020-11-10 00:00:00 8.5 4 Oeste 8 Oeste 0 958.4 -- 96
2020-11-09 23:00:00 9 3 Sudoeste 8 Sur 0 958.3 -- 92
2020-11-09 22:00:00 11 3 Sur 8 Sur 0 958.1 -- 88
2020-11-09 21:00:00 12.2 2 Nordeste 15 Sudoeste 0 957.8 -- 87
2020-11-09 20:00:00 13.7 13 Sudoeste 18 Oeste 0 957.4 -- 80
2020-11-09 19:00:00 14.8 14 Oeste 18 Oeste 0 956.8 -- 77
2020-11-09 18:00:00 17.5 12 Oeste 18 Oeste 0 956.3 -- 65
2020-11-09 17:00:00 19.3 9 Oeste 21 Oeste 0 955.9 -- 58
2020-11-09 16:00:00 19.1 12 Oeste 18 Oeste 0 955.8 -- 59
2020-11-09 15:00:00 18.7 12 Oeste 24 Oeste 0 955.8 -- 60
2020-11-09 14:00:00 18.6 13 Oeste 22 Oeste 0 956 -- 56
2020-11-09 13:00:00 18.2 8 Oeste 18 Oeste 0 956.7 -- 56
2020-11-09 12:00:00 16.4 0 Calma 5 Norte 0 957.5 -- 65
2020-11-09 11:00:00 12.4 0 Calma 5 Noroeste 0 957.8 -- 78
2020-11-09 10:00:00 9.3 2 Noroeste 8 Noroeste 0 957.9 -- 93
2020-11-09 09:00:00 7.1 3 Oeste 5 Sur 0 957.5 -- 96
2020-11-09 08:00:00 4.6 0 Calma 2 Sur 0 956.7 -- 96
2020-11-09 07:00:00 4.9 0 Calma -- -- 0 956.3 -- 96
2020-11-09 06:00:00 5.4 0 Calma 5 Sudoeste 0 956.1 -- 96
2020-11-09 05:00:00 5.9 0 Calma 4 Oeste 0 956 -- 96
2020-11-09 04:00:00 6.5 4 Sudoeste 8 Oeste 0 956.1 -- 96
2020-11-09 03:00:00 6.6 0 Calma 4 Noroeste 0 956.2 -- 95
2020-11-09 02:00:00 7 0 Calma 2 Sur 0 956.2 -- 94
2020-11-09 01:00:00 7.3 0 Calma 5 Sudoeste 0 956.6 -- 93
2020-11-09 00:00:00 7.5 3 Oeste 5 Oeste 0 956.6 -- 93
2020-11-08 23:00:00 8.5 2 Sudoeste 5 Sudoeste 0 956.6 -- 91
2020-11-08 22:00:00 9.8 2 Sudeste 17 Sur 0 956.4 -- 88
2020-11-08 21:00:00 10.7 6 Sudoeste 9 Sur 0 956.2 -- 86
2020-11-08 20:00:00 12.2 3 Oeste 15 Sudoeste 0 956.1 -- 80
2020-11-08 19:00:00 14 11 Sudoeste 17 Oeste 0 956 -- 74
2020-11-08 18:00:00 17.3 7 Oeste 18 Oeste 0 955.4 -- 60
2020-11-08 17:00:00 19.4 14 Oeste 21 Oeste 0 955 -- 52
2020-11-08 16:00:00 19.6 6 Oeste 13 Noroeste 0 955.1 -- 54
2020-11-08 15:00:00 18.7 0 Calma 8 Norte 0 955.3 -- 57
2020-11-08 14:00:00 17.1 2 Norte 8 Norte 0 955.8 -- 59
2020-11-08 13:00:00 14.9 0 Calma 5 Norte 0 956.7 -- 70
2020-11-08 12:00:00 14.2 0 Calma 4 Norte 0 957.5 -- 67
2020-11-08 11:00:00 13.3 0 Calma 4 Sudeste 0 957.9 -- 71
2020-11-08 10:00:00 8.8 0 Calma 5 Oeste 0 958.4 -- 93
2020-11-08 09:00:00 6 0 Calma 5 Sudeste 0 958.3 -- 97
2020-11-08 08:00:00 3.9 0 Calma -- -- 0 957.9 -- 96
2020-11-08 07:00:00 4 0 Calma 5 Oeste 0 957.6 -- 96
2020-11-08 06:00:00 4.8 2 Sudoeste 8 Sudoeste 0 957.4 -- 96
2020-11-08 05:00:00 5.5 3 Sudoeste 8 Oeste 0 957.4 -- 96
2020-11-08 04:00:00 5.8 4 Oeste 5 Oeste 0 957.5 -- 96
2020-11-08 03:00:00 6.4 3 Sur 8 Sudeste 0 957.5 -- 96
2020-11-08 02:00:00 6.8 0 Calma 8 Sur 0 957.8 -- 96
2020-11-08 01:00:00 8.1 4 Sur 17 Este 0 958 -- 96
2020-11-08 00:00:00 8.2 3 Oeste 8 Oeste 0 958.2 -- 94
2020-11-07 23:00:00 9 3 Sudoeste 5 Sudoeste 0 958.3 -- 93
2020-11-07 22:00:00 9.9 3 Norte 13 Norte 0 957.8 -- 91
2020-11-07 21:00:00 11.5 2 Este 5 Este 0 957.7 -- 87
2020-11-07 20:00:00 11.8 4 Noroeste 13 Sudoeste 0 957.3 -- 85
2020-11-07 19:00:00 13.3 8 Sur 13 Sur 0 956.9 -- 82
2020-11-07 18:00:00 17.9 2 Noroeste 17 Oeste 0 956.1 -- 55
2020-11-07 17:00:00 18.9 12 Oeste 22 Oeste 0 956 -- 52
2020-11-07 16:00:00 19.7 14 Oeste 26 Oeste 0 955.8 -- 48
2020-11-07 15:00:00 19.5 17 Oeste 26 Noroeste 0 955.4 -- 52
2020-11-07 14:00:00 17.5 16 Oeste 26 Noroeste 0 955.4 -- 64
2020-11-07 13:00:00 19.4 14 Sudoeste 30 Sur 0 955.3 -- 51
2020-11-07 12:00:00 18.5 20 Sudoeste 33 Sudoeste 0 955.7 -- 53
2020-11-07 11:00:00 17.9 13 Sudoeste 37 Sudoeste 0.1 955.5 -- 58
2020-11-07 10:00:00 15.4 12 Sur 26 Sudoeste 0 954.8 -- 73
2020-11-07 09:00:00 14.4 14 Este 30 Este 0 953.4 -- 75
2020-11-07 08:00:00 12.9 8 Norte 41 Sur 0.8 952 -- 88
2020-11-07 07:00:00 15.3 15 Sur 30 Sur 0 950.7 -- 71
2020-11-07 06:00:00 14.2 10 Sudeste 30 Sur 0 950.5 -- 80
2020-11-07 05:00:00 13.5 7 Sur 21 Oeste 0 950.2 -- 86
2020-11-07 04:00:00 13.5 6 Sudoeste 33 Sudeste 0.1 950.3 -- 86
2020-11-07 03:00:00 13.8 17 Sudeste 28 Sur 0 950.3 -- 82
2020-11-07 02:00:00 13.4 17 Este 35 Este 0.2 950.6 -- 94
2020-11-07 01:00:00 13.4 13 Este 21 Este 2.9 952.1 -- 95
2020-11-07 00:00:00 13.6 6 Oeste 24 Sudoeste 3.2 952.4 -- 91
2020-11-06 23:00:00 14.7 2 Sur 18 Sudoeste 1.9 951 -- 88
2020-11-06 22:00:00 16 4 Norte 30 Sudoeste 0.7 949.5 -- 76
2020-11-06 21:00:00 19.6 19 Oeste 28 Oeste 0.1 949.6 -- 46
2020-11-06 20:00:00 20.4 0 Calma 26 Noroeste 0 947 -- 40
2020-11-06 19:00:00 22.2 2 Sudeste 21 Sudeste 0 946.8 -- 32
2020-11-06 18:00:00 23.7 13 Sur 45 Sudeste 0 946 -- 29
2020-11-06 17:00:00 25.4 27 Sudeste 48 Sudeste 0 945.7 -- 25
2020-11-06 16:00:00 26.3 32 Sudeste 55 Sudeste 0 945.8 -- 23
2020-11-06 15:00:00 27.1 39 Sudeste 59 Sudeste 0 945.9 -- 22
2020-11-06 14:00:00 26.9 40 Sudeste 59 Sudeste 0 946.5 -- 24
2020-11-06 13:00:00 27.2 39 Sudeste 58 Sudeste 0 947 -- 24
2020-11-06 12:00:00 23.9 6 Nordeste 18 Nordeste 0 947.8 -- 39
2020-11-06 11:00:00 21.8 6 Norte 30 Este 0 948.6 0 41
2020-11-06 10:00:00 16.3 3 Oeste 8 Sur 0 949 -- 65
2020-11-06 09:00:00 13.8 2 Sudeste 11 Este 0 949 -- 75
2020-11-06 08:00:00 9.8 4 Sudeste 15 Sudeste 0 948.6 -- 86
2020-11-06 07:00:00 10.8 0 Calma 18 Sur 0 948.6 -- 82
2020-11-06 06:00:00 10.9 4 Sur 17 Sur 0 948.7 -- 84
2020-11-06 05:00:00 11.3 0 Calma 11 Sur 0 948.5 -- 82
2020-11-06 04:00:00 12.6 3 Sudeste 17 Sudeste 0 949.1 -- 75
2020-11-06 03:00:00 12.6 12 Sudeste 15 Sudeste 0 949.6 -- 75
2020-11-06 02:00:00 11.9 5 Sudeste 17 Sudoeste 0 949.7 -- 78
2020-11-06 01:00:00 11.8 6 Sur 11 Sur 0 950 -- 79
2020-11-06 00:00:00 13.7 2 Sudeste 15 Este 0 950.4 -- 71
2020-11-05 23:00:00 14.7 7 Este 18 Nordeste 0 950.6 -- 65
2020-11-05 22:00:00 14.3 3 Sudeste 13 Nordeste 0 950.4 -- 69
2020-11-05 21:00:00 15.7 5 Nordeste 28 Este 0 949.9 -- 62
2020-11-05 20:00:00 16.8 8 Este 26 Sudeste 0 949.7 -- 56
2020-11-05 19:00:00 17.1 5 Nordeste 22 Sur 0 949 -- 56
2020-11-05 18:00:00 18.9 15 Sudeste 33 Sur 0 948 -- 50
2020-11-05 17:00:00 20.3 21 Sudeste 50 Sur 0 948.1 -- 48
2020-11-05 16:00:00 20 36 Sur 61 Sur 0 947.4 -- 49
2020-11-05 15:00:00 20.6 32 Sudeste 58 Sudeste 0 947.5 -- 47
2020-11-05 14:00:00 21.3 37 Sudeste 59 Sudeste 0 947 -- 45
2020-11-05 13:00:00 19.1 30 Sudeste 52 Sur 0.1 947.6 -- 52
2020-11-05 12:00:00 16.1 2 Norte 18 Este 0 948.4 -- 78
2020-11-05 11:00:00 14.7 12 Este 18 Norte 0 949.5 -- 86
2020-11-05 10:00:00 12.8 7 Norte 17 Oeste 0 950.1 -- 94
2020-11-05 09:00:00 12 4 Noroeste 5 Noroeste 0.3 949.4 -- 96
2020-11-05 08:00:00 11.2 0 Calma 13 Sudeste 0 948.7 -- 95
2020-11-05 07:00:00 11.2 13 Sudeste 17 Este 0 948 -- 95
2020-11-05 06:00:00 11.6 0 Calma 8 Sudeste 0 947.5 -- 90
2020-11-05 05:00:00 12 10 Norte 22 Este 0 947.5 -- 89
2020-11-05 04:00:00 12.4 20 Este 61 Sudeste 0.2 947.8 -- 87
2020-11-05 03:00:00 13.4 36 Sudeste 61 Sudeste 0.7 947.9 -- 81
2020-11-05 02:00:00 13.7 24 Sudeste 45 Sudeste 3.9 948.4 -- 84
2020-11-05 01:00:00 13.3 7 Sur 15 Este 0 947.3 -- 79
2020-11-05 00:00:00 14.3 8 Este 33 Sudeste 0 947 -- 73
2020-11-04 23:00:00 15.7 23 Este 37 Este 0 948 -- 68
2020-11-04 22:00:00 15.8 24 Sudeste 42 Sudeste 0 948.3 -- 68
2020-11-04 21:00:00 14.2 0 Calma 8 Norte 0 948.3 -- 79
2020-11-04 20:00:00 14.6 3 Nordeste 11 Noroeste 0 948.2 -- 77
2020-11-04 19:00:00 15.4 8 Oeste 17 Oeste 0 947.8 -- 68
2020-11-04 18:00:00 16.8 13 Sudoeste 26 Sur 0 947.7 -- 60
2020-11-04 17:00:00 18.2 15 Sur 24 Sur 0 948 -- 55
2020-11-04 16:00:00 18.4 2 Norte 15 Oeste 0 948.1 -- 57
2020-11-04 15:00:00 17.3 9 Oeste 17 Noroeste 0 948.8 -- 62
2020-11-04 14:00:00 16.9 8 Norte 21 Nordeste 0 949.5 -- 64
2020-11-04 13:00:00 15.4 6 Norte 13 Norte 0 950.6 -- 76
2020-11-04 12:00:00 13.8 7 Noroeste 11 Noroeste 0 951.8 -- 89
2020-11-04 11:00:00 12.7 3 Sur 8 Nordeste 0.1 952.6 -0.9 90
2020-11-04 10:00:00 12 5 Este 11 Nordeste 0.2 953.2 -- 92
2020-11-04 09:00:00 11.3 3 Sur 8 Sur 0.5 953.8 -- 92
2020-11-04 08:00:00 10.6 5 Norte 11 Norte 0 953.5 -- 87
2020-11-04 07:00:00 10.4 5 Sudoeste 13 Oeste 0 952.9 -- 87
2020-11-04 06:00:00 11.4 5 Sur 13 Sur 0 953.3 -- 84
2020-11-04 05:00:00 10.3 0 Calma 5 Sudoeste 0 953.7 -- 86
2020-11-04 04:00:00 10.5 2 Nordeste 8 Sudeste 0 954.1 -- 84
2020-11-04 03:00:00 10.5 0 Calma 8 Norte 0 954.7 -- 82
2020-11-04 02:00:00 11.2 5 Oeste -- -- -- 954.9 -- 78
2020-11-04 01:00:00 11.3 0 Calma 8 Sudoeste 0 955.4 -- 80
2020-11-04 00:00:00 12.5 6 Sur 8 Sur 0 955.7 -- 76
2020-11-03 23:00:00 13 2 Oeste 13 Oeste 0 956 -- 74
2020-11-03 22:00:00 14.1 6 Oeste 9 Oeste 0 956.3 -- 68
2020-11-03 21:00:00 15.7 8 Oeste 13 Oeste 0 956.2 -- 63
2020-11-03 20:00:00 16.5 3 Sur 5 Sudoeste 0 956.1 -- 61
2020-11-03 19:00:00 18.7 2 Sudeste 11 Sudoeste 0 955.7 -- 54
2020-11-03 18:00:00 21.4 4 Norte 22 Oeste 0 955.1 -- 44
2020-11-03 17:00:00 23.7 17 Oeste 28 Oeste 0 954.6 -- 33
2020-11-03 16:00:00 26 12 Sudoeste 18 Sudoeste 0 954.4 -- 26
2020-11-03 15:00:00 26.3 3 Oeste 11 Oeste 0 954.7 -- 28
2020-11-03 14:00:00 24.6 0 Calma 8 Noroeste 0 955.3 -- 32
2020-11-03 13:00:00 21.9 0 Calma 5 Noroeste 0 956.2 -- 39
2020-11-03 12:00:00 19 0 Calma 4 Noroeste 0 957 -- 49
2020-11-03 11:00:00 15.7 0 Calma 5 Oeste 0 957.6 -- 59
2020-11-03 10:00:00 12.7 0 Calma 4 Norte 0 957.8 -- 69
2020-11-03 09:00:00 8.6 2 Sudoeste -- -- 0 957.9 -- 87
2020-11-03 08:00:00 5.1 3 Noroeste 5 Noroeste 0 957.4 -- 93
2020-11-03 07:00:00 5.4 2 Sur 5 Oeste 0 957.2 -- 92
2020-11-03 06:00:00 5.9 0 Calma 4 Sur 0 957.1 -- 90
2020-11-03 05:00:00 6.4 2 Sur 4 Sur 0 956.8 -- 89
2020-11-03 04:00:00 6.7 0 Calma 4 Oeste 0 956.9 -- 88
2020-11-03 03:00:00 7.6 0 Calma -- -- 0 957 -- 86
2020-11-03 02:00:00 8.3 3 Sudoeste -- -- -- 956.9 -- 83
2020-11-03 01:00:00 9.1 0 Calma 4 Sur 0 957.1 -- 80
2020-11-03 00:00:00 9.9 0 Calma 4 Sudoeste 0 957.2 -- 77
2020-11-02 23:00:00 11.6 0 Calma 8 Sur 0 957.3 -- 71
2020-11-02 22:00:00 13.3 0 Calma 4 Sur 0 957.2 -- 65
2020-11-02 21:00:00 15.4 0 Calma 13 Sudoeste 0 956.9 -- 56
2020-11-02 20:00:00 16.2 9 Sur 13 Sudoeste 0 956.4 -- 54
2020-11-02 19:00:00 19.4 5 Sur 13 Sudoeste 0 955.7 -- 46
2020-11-02 18:00:00 24.4 7 Sudoeste 15 Oeste 0 954.9 -- 35
2020-11-02 17:00:00 27 9 Oeste 17 Oeste 0 954.8 -- 26
2020-11-02 16:00:00 27.3 9 Oeste 18 Sudoeste 0 954.9 -- 25
2020-11-02 15:00:00 26.5 4 Oeste 13 Noroeste 0 955.3 -- 29
2020-11-02 14:00:00 25.3 0 Calma 5 Norte 0 956 -- 30
2020-11-02 13:00:00 22.5 0 Calma 5 Norte 0 957 -- 39
2020-11-02 12:00:00 19.5 0 Calma 5 Norte 0 957.8 -- 48
2020-11-02 11:00:00 16.6 0 Calma 5 Sur 0 958.4 -- 56
2020-11-02 10:00:00 11.7 0 Calma 4 Norte 0 958.6 -- 75
2020-11-02 09:00:00 9.2 0 Calma 4 Sudeste 0 958.4 -- 84
2020-11-02 08:00:00 5.4 0 Calma 4 Sur 0 957.8 -- 92
2020-11-02 07:00:00 6 0 Calma 4 Sur 0 957.6 -- 91
2020-11-02 06:00:00 6.5 2 Sur 4 Sur 0 957.4 -- 91
2020-11-02 05:00:00 6.5 0 Calma 2 Sudeste 0 957.4 -- 90
2020-11-02 04:00:00 7.4 0 Calma 2 Sudeste 0 957.4 -- 88
2020-11-02 03:00:00 8.1 2 Sur 5 Oeste 0 957.6 -- 87
2020-11-02 02:00:00 8.7 3 Sudoeste -- -- -- 957.8 -- 84
2020-11-02 01:00:00 9.5 0 Calma 5 Sudoeste 0 958.1 -- 80
2020-11-02 00:00:00 10.6 3 Sudoeste -- -- 0 958.3 -- 77
2020-11-01 23:00:00 11.5 4 Sur 5 Sudoeste 0 958.4 -- 74
2020-11-01 22:00:00 13.6 2 Sur -- -- 0 958.3 -- 66
2020-11-01 21:00:00 16.2 0 Calma 5 Sur 0 957.9 -- 56
2020-11-01 20:00:00 17.9 7 Sudoeste 13 Sudoeste 0 957.4 -- 51
2020-11-01 19:00:00 19 8 Sur 18 Sur 0 956.8 -- 48
2020-11-01 18:00:00 25 4 Sudoeste -- -- 0 956.4 -- 35
2020-11-01 17:00:00 27.3 7 Oeste 13 Oeste 0 956.5 -- 26
2020-11-01 16:00:00 27.5 5 Sudoeste 13 Oeste 0 956.5 -- 28
2020-11-01 15:00:00 26.5 3 Oeste 8 Oeste 0 957.1 -- 30
2020-11-01 14:00:00 24.9 2 Noroeste 8 Norte 0 957.7 -- 34
2020-11-01 13:00:00 21.8 0 Calma 8 Nordeste 0 958.5 -- 44
2020-11-01 12:00:00 19.2 0 Calma 5 Noroeste 0 959.5 -- 50
2020-11-01 11:00:00 16.8 0 Calma 4 Este 0 959.9 -- 55
2020-11-01 10:00:00 12.5 0 Calma 2 Noroeste 0 959.9 -- 74
2020-11-01 09:00:00 8.5 0 Calma 4 Norte 0 959.7 -- 89
2020-11-01 08:00:00 5.7 0 Calma 4 Sudeste 0 959.3 -- 93
2020-11-01 07:00:00 6.1 3 Sur 5 Sur 0 959.1 -- 93
2020-11-01 06:00:00 6.5 0 Calma 4 Sur 0 959.2 -- 92
2020-11-01 05:00:00 7.4 2 Sur 8 Sur 0 959.2 -- 91
2020-11-01 04:00:00 7.7 0 Calma 5 Sudeste 0 959.6 -- 89
2020-11-01 03:00:00 8.7 0 Calma 8 Sudoeste 0 959.5 -- 88
2020-11-01 02:00:00 9.9 5 Sur -- -- -- 959.4 -- 84
2020-11-01 01:00:00 9.7 3 Noroeste 5 Noroeste 0 959.7 -- 83
2020-11-01 00:00:00 11 0 Calma 4 Norte 0 959.9 -- 78
2020-10-31 23:00:00 12.5 0 Calma 8 Oeste 0 959.7 -- 73
2020-10-31 22:00:00 13.9 0 Calma 8 Norte 0 959.3 -- 68
2020-10-31 21:00:00 16.2 7 Sudoeste 15 Sudoeste 0 958.6 -- 58
2020-10-31 20:00:00 17.7 12 Sudoeste 15 Sudoeste 0 958.4 -- 54
2020-10-31 19:00:00 20 6 Sudoeste 24 Oeste 0 957.8 -- 46
2020-10-31 18:00:00 23.6 17 Oeste 24 Oeste 0 957.3 -- 37
2020-10-31 17:00:00 26.4 14 Oeste 22 Oeste 0 957 -- 31
2020-10-31 16:00:00 26 12 Oeste 18 Noroeste 0 957.1 -- 32
2020-10-31 15:00:00 26.5 9 Oeste 15 Oeste 0 957.3 -- 30
2020-10-31 14:00:00 24.9 6 Noroeste 15 Noroeste 0 958 -- 35
2020-10-31 13:00:00 22.8 2 Noroeste 8 Nordeste 0 958.9 -- 39
2020-10-31 12:00:00 20.8 2 Este 8 Oeste 0 959.5 -- 45
2020-10-31 11:00:00 16.9 3 Oeste 8 Noroeste 0 960.2 -- 60
2020-10-31 10:00:00 13.5 0 Calma 4 Noroeste 0 960.3 -- 70
2020-10-31 09:00:00 9.4 0 Calma 5 Oeste 0 960.2 -- 89
2020-10-31 08:00:00 6.8 2 Noroeste 5 Sudoeste 0 959.7 -- 92
2020-10-31 07:00:00 7.5 0 Calma 4 Sur 0 959.3 -- 91
2020-10-31 06:00:00 8.6 4 Sur -- -- -- 959.1 -- 88
2020-10-31 05:00:00 9.1 0 Calma 4 Norte 0 958.9 -- 89
2020-10-31 04:00:00 10.1 0 Calma 4 Sur 0 958.8 -- 84
2020-10-31 03:00:00 10.9 0 Calma 13 Sudoeste 0 958.8 -- 81
2020-10-31 02:00:00 10.3 12 Sudoeste -- -- -- 958.8 -- 86
2020-10-31 01:00:00 10.4 0 Calma 4 Sudoeste 0 958.8 -- 84
2020-10-31 00:00:00 11.8 2 Sudoeste 5 Sudoeste 0 958.9 -- 79
2020-10-30 23:00:00 11.9 0 Calma 5 Sudeste 0 959 -- 78
2020-10-30 22:00:00 12.7 0 Calma 5 Sudoeste 0 958.6 -- 71
2020-10-30 21:00:00 14.3 0 Calma 11 Sur 0 958.3 -- 63
2020-10-30 20:00:00 16.2 2 Sudeste 11 Oeste 0 958.1 -- 62
2020-10-30 19:00:00 19.4 6 Noroeste 17 Sudeste 0 957.3 -- 51
2020-10-30 18:00:00 23.5 12 Sudeste 21 Sudeste 0 956.9 -- 40
2020-10-30 17:00:00 27.4 18 Sudeste 26 Sudeste 0 956.6 -- 26
2020-10-30 16:00:00 27.5 5 Este 15 Este 0 956.7 -- 25
2020-10-30 15:00:00 26.8 6 Nordeste 22 Nordeste 0 957 -- 27
2020-10-30 14:00:00 26.6 13 Este 26 Este 0 957.6 -- 27
2020-10-30 13:00:00 24.7 4 Este 21 Este 0 958.4 -- 34
2020-10-30 12:00:00 20.9 3 Oeste 15 Nordeste 0 959.3 -- 52
2020-10-30 11:00:00 18.4 4 Este 13 Sudeste 0 959.7 -- 55
2020-10-30 10:00:00 14.3 0 Calma 4 Este 0 960.2 -- 70
2020-10-30 09:00:00 10.5 0 Calma 5 Sudoeste 0 960.1 -- 87
2020-10-30 08:00:00 5.9 4 Oeste 5 Oeste 0 959.7 -- 94
2020-10-30 07:00:00 6.6 2 Sur 4 Sudeste 0 959.4 -- 94
2020-10-30 06:00:00 6.5 0 Calma 4 Sudoeste 0 959.3 -- 92
2020-10-30 05:00:00 7.3 0 Calma 4 Sudoeste 0 959.1 -- 92
2020-10-30 04:00:00 7.7 0 Calma 4 Sur 0 959.3 -- 91
2020-10-30 03:00:00 8.1 0 Calma 4 Sudeste 0 959.3 -- 90
2020-10-30 02:00:00 8.5 0 Calma 4 Sudeste 0 959.2 -- 89
2020-10-30 01:00:00 9.4 0 Calma 4 Sudoeste 0 959.4 -- 88
2020-10-30 00:00:00 10.2 0 Calma 5 Sudoeste 0 959.6 -- 85
2020-10-29 23:00:00 11.3 3 Sudoeste 8 Sudoeste 0 959.7 -- 80
2020-10-29 22:00:00 13 0 Calma 8 Sur 0 959.4 -- 73
2020-10-29 21:00:00 14.4 0 Calma 8 Nordeste 0 959 -- 68
2020-10-29 20:00:00 18.2 4 Nordeste 22 Sudeste 0 958.6 -- 52
2020-10-29 19:00:00 19.7 4 Noroeste 21 Sur 0 957.7 -- 48
2020-10-29 18:00:00 23.6 10 Sur 17 Sur 0 957.3 -- 38
2020-10-29 17:00:00 26.4 4 Sur 11 Sur 0 957.4 -- 29
2020-10-29 16:00:00 26 4 Nordeste 15 Este 0 957.4 -- 29
2020-10-29 15:00:00 26 7 Este 17 Este 0 957.6 -- 30
2020-10-29 14:00:00 24.5 4 Sudeste 11 Sudeste 0 958.2 -- 34
2020-10-29 13:00:00 21.7 0 Calma 5 Oeste 0 959.2 -- 43
2020-10-29 12:00:00 18.4 2 Oeste 8 Sur 0 959.8 -- 52
2020-10-29 11:00:00 15.2 0 Calma 4 Sudeste 0 960.3 -- 65
2020-10-29 10:00:00 10.9 0 Calma 4 Norte 0 960.3 -- 84
2020-10-29 09:00:00 8.2 0 Calma 8 Sur 0 960.1 -- 94
2020-10-29 08:00:00 4.3 0 Calma 4 Sudeste 0 959.4 -- 95
2020-10-29 07:00:00 5 0 Calma 4 Sur 0 959 -- 96
2020-10-29 06:00:00 5.3 3 Sur 8 Sur 0 958.8 -- 95
2020-10-29 05:00:00 5.5 3 Sudoeste 4 Sudoeste 0 958.5 -- 95
2020-10-29 04:00:00 6.1 0 Calma 5 Sudoeste 0 958.3 -- 94
2020-10-29 03:00:00 7 0 Calma 8 Sur 0 958.4 -- 93
2020-10-29 02:00:00 7.4 0 Calma 5 Sur 0 958.3 -- 93
2020-10-29 01:00:00 8.3 0 Calma 4 Sudoeste 0 958.3 -- 90
2020-10-29 00:00:00 9 4 Sudoeste 5 Sudoeste 0 958.3 -- 90
2020-10-28 23:00:00 10.5 0 Calma 8 Oeste 0 958.4 -- 85
2020-10-28 22:00:00 12 0 Calma 8 Oeste 0 958 -- 79
2020-10-28 21:00:00 13.6 0 Calma 8 Sudoeste 0 957.4 -- 73
2020-10-28 20:00:00 15.6 3 Sur -- -- 0 956.7 -- 66
2020-10-28 19:00:00 17.2 8 Oeste 13 Oeste 0 956 -- 62
2020-10-28 18:00:00 21.3 10 Sudoeste 18 Oeste 0 955.2 -- 46
2020-10-28 17:00:00 22.7 6 Oeste 13 Oeste 0 955 -- 35
2020-10-28 16:00:00 23.3 4 Sudoeste 13 Oeste 0 954.9 -- 29
2020-10-28 15:00:00 22.4 0 Calma 8 Sudoeste 0 955.1 -- 26
2020-10-28 14:00:00 20.5 3 Oeste 8 Noroeste 0 955.5 -- 31
2020-10-28 13:00:00 17.6 2 Norte 9 Oeste 0 956.2 -- 43
2020-10-28 12:00:00 15.2 3 Norte 8 Norte 0 957 -- 50
2020-10-28 11:00:00 12.9 0 Calma 5 Sudeste 0 957.2 -- 62
2020-10-28 10:00:00 9.8 0 Calma 4 Sudoeste 0 957.3 -- 74
2020-10-28 09:00:00 5.9 0 Calma 4 Sur 0 957.1 -- 88
2020-10-28 08:00:00 2.8 0 Calma 4 Noroeste 0 956.5 -- 94
2020-10-28 07:00:00 3 0 Calma 4 Sur 0 956 -- 93
2020-10-28 06:00:00 3.7 2 Norte 5 Nordeste 0 955.6 -- 92
2020-10-28 05:00:00 4.3 2 Oeste 5 Sudoeste 0 955.1 -- 92
2020-10-28 04:00:00 4.2 0 Calma 8 Sur 0 954.9 -- 91
2020-10-28 03:00:00 4.5 2 Sur 4 Sur 0 954.9 -- 90
2020-10-28 02:00:00 5.2 0 Calma 5 Sudeste 0 955 -- 88
2020-10-28 01:00:00 5.7 0 Calma 5 Sur 0 955.2 -- 86
2020-10-28 00:00:00 6.6 2 Sur 4 Sur 0 955.4 -- 83
2020-10-27 23:00:00 8.1 3 Norte 13 Sudoeste 0 955.8 -- 75
2020-10-27 22:00:00 9 8 Sudoeste 13 Sudoeste 0 955.5 -- 73
2020-10-27 21:00:00 10.4 12 Sudoeste 18 Sudoeste 0 954.9 -- 66
2020-10-27 20:00:00 10.8 7 Sudoeste 13 Sudoeste 0 954.7 -- 59
2020-10-27 19:00:00 12.7 8 Sudoeste 15 Oeste 0 954.1 -- 51
2020-10-27 18:00:00 16.9 10 Oeste 17 Oeste 0 953.4 -- 33
2020-10-27 17:00:00 18.3 9 Oeste 17 Sudoeste 0 953.3 -- 34
2020-10-27 16:00:00 18.5 6 Oeste 18 Oeste 0 953.6 -- 39
2020-10-27 15:00:00 17.3 7 Oeste 18 Sudoeste 0 953.8 -- 44
2020-10-27 14:00:00 16 7 Oeste 17 Oeste 0 954.6 -- 48
2020-10-27 13:00:00 14.6 4 Noroeste 11 Noroeste 0 955.4 -- 54
2020-10-27 12:00:00 12.8 0 Calma 8 Este 0 956.5 -- 60
2020-10-27 11:00:00 9.7 0 Calma 8 Norte 0 956.8 -- 71
2020-10-27 10:00:00 7.1 4 Norte 8 Norte 0 956.8 -- 84
2020-10-27 09:00:00 3.9 3 Sur 8 Sur 0 956.6 -- 96
2020-10-27 08:00:00 0.5 0 Calma 4 Sur 0 956 -- 96
2020-10-27 07:00:00 1 2 Sur 5 Sudoeste 0 955.9 -- 95
2020-10-27 06:00:00 1.8 3 Sudoeste 5 Oeste 0 955.9 -- 95
2020-10-27 05:00:00 2 0 Calma 4 Sur 0 955.5 -- 95
2020-10-27 04:00:00 2.8 2 Oeste 5 Oeste 0 955.6 -- 95
2020-10-27 03:00:00 3.2 5 Sudoeste 8 Sudoeste 0 955.8 -- 94
2020-10-27 02:00:00 3.7 0 Calma 5 Sudoeste 0 956.1 -- 93
2020-10-27 01:00:00 4.6 0 Calma 13 Este 0 956.3 -- 91
2020-10-27 00:00:00 5.2 2 Sur 8 Sur 0 956.5 -- 89